sensor_id;sensor_type;location;lat;lon;timestamp;pressure;altitude;pressure_sealevel;temperature;humidity
56568;BME280;42456;49.956;20.004;2023-04-04T00:02:11;98893.97;;;-0.16;67.93
56568;BME280;42456;49.956;20.004;2023-04-04T00:04:38;98897.23;;;-0.17;68.23
56568;BME280;42456;49.956;20.004;2023-04-04T00:07:05;98898.05;;;-0.19;68.39
56568;BME280;42456;49.956;20.004;2023-04-04T00:09:33;98897.42;;;-0.22;68.62
56568;BME280;42456;49.956;20.004;2023-04-04T00:11:59;98896.96;;;-0.25;68.13
56568;BME280;42456;49.956;20.004;2023-04-04T00:14:26;98894.02;;;-0.28;68.06
56568;BME280;42456;49.956;20.004;2023-04-04T00:16:53;98891.70;;;-0.31;68.25
56568;BME280;42456;49.956;20.004;2023-04-04T00:19:20;98894.30;;;-0.34;68.35
56568;BME280;42456;49.956;20.004;2023-04-04T00:21:47;98893.50;;;-0.38;68.37
56568;BME280;42456;49.956;20.004;2023-04-04T00:24:13;98897.50;;;-0.40;68.44
56568;BME280;42456;49.956;20.004;2023-04-04T00:26:40;98897.23;;;-0.40;68.34
56568;BME280;42456;49.956;20.004;2023-04-04T00:29:07;98900.04;;;-0.39;68.37
56568;BME280;42456;49.956;20.004;2023-04-04T00:31:34;98893.88;;;-0.38;68.52
56568;BME280;42456;49.956;20.004;2023-04-04T00:34:00;98895.09;;;-0.38;68.40
56568;BME280;42456;49.956;20.004;2023-04-04T00:36:27;98899.95;;;-0.38;68.43
56568;BME280;42456;49.956;20.004;2023-04-04T00:38:54;98897.97;;;-0.40;68.46
56568;BME280;42456;49.956;20.004;2023-04-04T00:41:21;98897.44;;;-0.44;68.55
56568;BME280;42456;49.956;20.004;2023-04-04T00:43:48;98900.88;;;-0.48;68.72
56568;BME280;42456;49.956;20.004;2023-04-04T00:46:15;98903.39;;;-0.52;68.62
56568;BME280;42456;49.956;20.004;2023-04-04T00:48:44;98909.34;;;-0.57;68.68
56568;BME280;42456;49.956;20.004;2023-04-04T00:51:12;98902.56;;;-0.61;68.69
56568;BME280;42456;49.956;20.004;2023-04-04T00:53:40;98903.35;;;-0.65;68.73
56568;BME280;42456;49.956;20.004;2023-04-04T00:56:10;98903.58;;;-0.68;68.95
56568;BME280;42456;49.956;20.004;2023-04-04T00:58:37;98906.46;;;-0.69;69.07
56568;BME280;42456;49.956;20.004;2023-04-04T01:01:05;98904.48;;;-0.70;69.06
56568;BME280;42456;49.956;20.004;2023-04-04T01:03:32;98909.49;;;-0.70;69.17
56568;BME280;42456;49.956;20.004;2023-04-04T01:06:00;98908.80;;;-0.72;69.15
56568;BME280;42456;49.956;20.004;2023-04-04T01:08:28;98912.33;;;-0.72;69.17
56568;BME280;42456;49.956;20.004;2023-04-04T01:10:56;98913.84;;;-0.73;69.26
56568;BME280;42456;49.956;20.004;2023-04-04T01:13:23;98912.05;;;-0.77;69.30
56568;BME280;42456;49.956;20.004;2023-04-04T01:15:51;98917.88;;;-0.79;69.36
56568;BME280;42456;49.956;20.004;2023-04-04T01:18:20;98918.73;;;-0.81;69.24
56568;BME280;42456;49.956;20.004;2023-04-04T01:21:09;98918.75;;;-0.83;69.65
56568;BME280;42456;49.956;20.004;2023-04-04T01:23:46;98920.86;;;-0.86;69.75
56568;BME280;42456;49.956;20.004;2023-04-04T01:26:15;98921.06;;;-0.90;69.73
56568;BME280;42456;49.956;20.004;2023-04-04T01:28:42;98923.15;;;-0.92;69.82
56568;BME280;42456;49.956;20.004;2023-04-04T01:31:11;98923.48;;;-0.91;70.00
56568;BME280;42456;49.956;20.004;2023-04-04T01:33:45;98920.33;;;-0.90;69.88
56568;BME280;42456;49.956;20.004;2023-04-04T01:36:24;98924.64;;;-0.88;69.93
56568;BME280;42456;49.956;20.004;2023-04-04T01:38:58;98923.91;;;-0.88;69.98
56568;BME280;42456;49.956;20.004;2023-04-04T01:41:26;98923.96;;;-0.87;70.10
56568;BME280;42456;49.956;20.004;2023-04-04T01:43:54;98933.73;;;-0.88;70.08
56568;BME280;42456;49.956;20.004;2023-04-04T01:46:21;98928.44;;;-0.88;70.14
56568;BME280;42456;49.956;20.004;2023-04-04T01:48:49;98931.27;;;-0.89;70.27
56568;BME280;42456;49.956;20.004;2023-04-04T01:51:15;98929.77;;;-0.91;70.20
56568;BME280;42456;49.956;20.004;2023-04-04T01:53:42;98926.31;;;-0.93;70.31
56568;BME280;42456;49.956;20.004;2023-04-04T01:56:09;98925.39;;;-0.96;70.14
56568;BME280;42456;49.956;20.004;2023-04-04T01:58:36;98926.79;;;-0.99;70.29
56568;BME280;42456;49.956;20.004;2023-04-04T02:01:03;98923.34;;;-0.99;70.36
56568;BME280;42456;49.956;20.004;2023-04-04T02:03:29;98928.47;;;-0.99;70.44
56568;BME280;42456;49.956;20.004;2023-04-04T02:05:57;98927.89;;;-0.99;70.47
56568;BME280;42456;49.956;20.004;2023-04-04T02:08:23;98921.56;;;-0.99;70.62
56568;BME280;42456;49.956;20.004;2023-04-04T02:10:50;98926.16;;;-0.98;70.56
56568;BME280;42456;49.956;20.004;2023-04-04T02:13:17;98927.70;;;-0.97;70.69
56568;BME280;42456;49.956;20.004;2023-04-04T02:15:44;98926.91;;;-0.97;70.70
56568;BME280;42456;49.956;20.004;2023-04-04T02:18:11;98927.64;;;-0.98;70.55
56568;BME280;42456;49.956;20.004;2023-04-04T02:20:37;98924.45;;;-0.99;70.47
56568;BME280;42456;49.956;20.004;2023-04-04T02:23:05;98925.02;;;-1.00;70.67
56568;BME280;42456;49.956;20.004;2023-04-04T02:25:31;98924.98;;;-1.02;70.74
56568;BME280;42456;49.956;20.004;2023-04-04T02:27:58;98922.74;;;-1.03;70.79
56568;BME280;42456;49.956;20.004;2023-04-04T02:30:25;98923.80;;;-1.03;70.70
56568;BME280;42456;49.956;20.004;2023-04-04T02:32:52;98925.36;;;-1.02;70.79
56568;BME280;42456;49.956;20.004;2023-04-04T02:35:23;98927.40;;;-1.00;70.83
56568;BME280;42456;49.956;20.004;2023-04-04T02:37:50;98929.69;;;-0.99;70.91
56568;BME280;42456;49.956;20.004;2023-04-04T02:40:16;98926.47;;;-0.98;71.04
56568;BME280;42456;49.956;20.004;2023-04-04T02:42:44;98924.84;;;-0.98;70.85
56568;BME280;42456;49.956;20.004;2023-04-04T02:45:11;98924.73;;;-0.99;70.89
56568;BME280;42456;49.956;20.004;2023-04-04T02:47:41;98923.54;;;-1.00;70.78
56568;BME280;42456;49.956;20.004;2023-04-04T02:50:09;98925.70;;;-1.00;70.92
56568;BME280;42456;49.956;20.004;2023-04-04T02:52:37;98922.29;;;-1.02;71.20
56568;BME280;42456;49.956;20.004;2023-04-04T02:55:04;98926.37;;;-1.04;71.15
56568;BME280;42456;49.956;20.004;2023-04-04T02:57:31;98923.83;;;-1.05;71.08
56568;BME280;42456;49.956;20.004;2023-04-04T02:59:58;98920.69;;;-1.07;71.02
56568;BME280;42456;49.956;20.004;2023-04-04T03:02:25;98919.20;;;-1.07;71.16
56568;BME280;42456;49.956;20.004;2023-04-04T03:04:52;98921.39;;;-1.05;71.11
56568;BME280;42456;49.956;20.004;2023-04-04T03:07:19;98921.58;;;-1.04;71.38
56568;BME280;42456;49.956;20.004;2023-04-04T03:09:48;98920.05;;;-1.03;71.45
56568;BME280;42456;49.956;20.004;2023-04-04T03:12:15;98918.89;;;-1.03;71.46
56568;BME280;42456;49.956;20.004;2023-04-04T03:14:46;98919.64;;;-1.03;71.38
56568;BME280;42456;49.956;20.004;2023-04-04T03:17:13;98919.66;;;-1.04;71.29
56568;BME280;42456;49.956;20.004;2023-04-04T03:19:40;98914.16;;;-1.05;71.33
56568;BME280;42456;49.956;20.004;2023-04-04T03:22:07;98916.98;;;-1.06;71.62
56568;BME280;42456;49.956;20.004;2023-04-04T03:24:35;98912.59;;;-1.08;71.55
56568;BME280;42456;49.956;20.004;2023-04-04T03:27:04;98917.06;;;-1.08;71.62
56568;BME280;42456;49.956;20.004;2023-04-04T03:29:31;98914.63;;;-1.08;71.82
56568;BME280;42456;49.956;20.004;2023-04-04T03:31:58;98910.79;;;-1.07;71.61
56568;BME280;42456;49.956;20.004;2023-04-04T03:34:25;98904.86;;;-1.05;71.83
56568;BME280;42456;49.956;20.004;2023-04-04T03:36:52;98901.43;;;-1.05;71.62
56568;BME280;42456;49.956;20.004;2023-04-04T03:39:19;98902.34;;;-1.05;71.83
56568;BME280;42456;49.956;20.004;2023-04-04T03:41:46;98895.66;;;-1.06;71.81
56568;BME280;42456;49.956;20.004;2023-04-04T03:44:13;98896.14;;;-1.06;71.73
56568;BME280;42456;49.956;20.004;2023-04-04T03:46:40;98899.81;;;-1.08;71.99
56568;BME280;42456;49.956;20.004;2023-04-04T03:49:07;98892.72;;;-1.09;72.00
56568;BME280;42456;49.956;20.004;2023-04-04T03:51:33;98889.98;;;-1.11;72.00
56568;BME280;42456;49.956;20.004;2023-04-04T03:54:00;98888.33;;;-1.12;72.24
56568;BME280;42456;49.956;20.004;2023-04-04T03:56:29;98884.91;;;-1.12;72.17
56568;BME280;42456;49.956;20.004;2023-04-04T03:58:58;98883.96;;;-1.11;72.11
56568;BME280;42456;49.956;20.004;2023-04-04T04:01:25;98883.57;;;-1.10;72.23
56568;BME280;42456;49.956;20.004;2023-04-04T04:03:51;98883.20;;;-1.10;72.18
56568;BME280;42456;49.956;20.004;2023-04-04T04:06:18;98881.41;;;-1.10;72.26
56568;BME280;42456;49.956;20.004;2023-04-04T04:08:45;98873.91;;;-1.10;72.31
56568;BME280;42456;49.956;20.004;2023-04-04T04:11:12;98876.60;;;-1.10;72.45
56568;BME280;42456;49.956;20.004;2023-04-04T04:13:39;98877.65;;;-1.10;72.46
56568;BME280;42456;49.956;20.004;2023-04-04T04:16:06;98879.88;;;-1.10;72.81
56568;BME280;42456;49.956;20.004;2023-04-04T04:18:33;98883.98;;;-1.10;72.46
56568;BME280;42456;49.956;20.004;2023-04-04T04:21:00;98884.02;;;-1.12;72.51
56568;BME280;42456;49.956;20.004;2023-04-04T04:23:28;98885.26;;;-1.13;72.70
56568;BME280;42456;49.956;20.004;2023-04-04T04:25:56;98878.90;;;-1.15;72.58
56568;BME280;42456;49.956;20.004;2023-04-04T04:28:23;98881.55;;;-1.14;72.57
56568;BME280;42456;49.956;20.004;2023-04-04T04:31:06;98887.08;;;-1.12;72.87
56568;BME280;42456;49.956;20.004;2023-04-04T04:33:33;98887.63;;;-1.10;72.48
56568;BME280;42456;49.956;20.004;2023-04-04T04:36:01;98887.62;;;-1.07;72.90
56568;BME280;42456;49.956;20.004;2023-04-04T04:38:29;98884.48;;;-1.06;72.87
56568;BME280;42456;49.956;20.004;2023-04-04T04:40:56;98880.35;;;-1.03;72.73
56568;BME280;42456;49.956;20.004;2023-04-04T04:43:23;98883.35;;;-1.01;72.66
56568;BME280;42456;49.956;20.004;2023-04-04T04:45:50;98882.86;;;-1.01;72.63
56568;BME280;42456;49.956;20.004;2023-04-04T04:48:17;98881.95;;;-1.02;72.61
56568;BME280;42456;49.956;20.004;2023-04-04T04:50:45;98879.23;;;-1.01;72.82
56568;BME280;42456;49.956;20.004;2023-04-04T04:53:12;98882.20;;;-1.00;73.05
56568;BME280;42456;49.956;20.004;2023-04-04T04:55:39;98881.42;;;-0.99;72.86
56568;BME280;42456;49.956;20.004;2023-04-04T04:58:08;98880.52;;;-0.99;72.82
56568;BME280;42456;49.956;20.004;2023-04-04T05:00:37;98884.77;;;-0.97;72.92
56568;BME280;42456;49.956;20.004;2023-04-04T05:03:05;98885.77;;;-0.95;72.87
56568;BME280;42456;49.956;20.004;2023-04-04T05:05:34;98889.14;;;-0.92;72.84
56568;BME280;42456;49.956;20.004;2023-04-04T05:08:02;98891.13;;;-0.88;72.72
56568;BME280;42456;49.956;20.004;2023-04-04T05:10:30;98892.05;;;-0.82;72.73
56568;BME280;42456;49.956;20.004;2023-04-04T05:12:57;98889.80;;;-0.77;72.64
56568;BME280;42456;49.956;20.004;2023-04-04T05:15:24;98894.44;;;-0.72;72.60
56568;BME280;42456;49.956;20.004;2023-04-04T05:17:57;98894.64;;;-0.69;72.54
56568;BME280;42456;49.956;20.004;2023-04-04T05:20:24;98895.55;;;-0.68;72.40
56568;BME280;42456;49.956;20.004;2023-04-04T05:22:51;98895.92;;;-0.64;72.41
56568;BME280;42456;49.956;20.004;2023-04-04T05:25:19;98891.88;;;-0.55;72.26
56568;BME280;42456;49.956;20.004;2023-04-04T05:27:46;98892.48;;;-0.46;72.90
56568;BME280;42456;49.956;20.004;2023-04-04T05:30:14;98890.55;;;-0.41;72.31
56568;BME280;42456;49.956;20.004;2023-04-04T05:32:43;98892.17;;;-0.35;71.59
56568;BME280;42456;49.956;20.004;2023-04-04T05:35:11;98898.27;;;-0.27;71.15
56568;BME280;42456;49.956;20.004;2023-04-04T05:37:39;98897.73;;;-0.11;71.29
56568;BME280;42456;49.956;20.004;2023-04-04T05:40:07;98902.26;;;-0.05;71.26
56568;BME280;42456;49.956;20.004;2023-04-04T05:42:34;98902.39;;;-0.04;71.15
56568;BME280;42456;49.956;20.004;2023-04-04T05:45:01;98900.25;;;-0.05;70.93
56568;BME280;42456;49.956;20.004;2023-04-04T05:47:29;98896.95;;;-0.02;70.78
56568;BME280;42456;49.956;20.004;2023-04-04T05:49:56;98899.63;;;0.06;71.11
56568;BME280;42456;49.956;20.004;2023-04-04T05:52:23;98904.34;;;0.14;70.52
56568;BME280;42456;49.956;20.004;2023-04-04T05:54:50;98908.48;;;0.17;70.80
56568;BME280;42456;49.956;20.004;2023-04-04T05:57:17;98907.78;;;0.23;70.55
56568;BME280;42456;49.956;20.004;2023-04-04T05:59:43;98907.02;;;0.30;70.30
56568;BME280;42456;49.956;20.004;2023-04-04T06:02:10;98918.34;;;0.40;70.51
56568;BME280;42456;49.956;20.004;2023-04-04T06:04:37;98915.31;;;0.47;69.75
56568;BME280;42456;49.956;20.004;2023-04-04T06:07:06;98919.17;;;0.53;70.13
56568;BME280;42456;49.956;20.004;2023-04-04T06:09:33;98921.40;;;0.58;69.75
56568;BME280;42456;49.956;20.004;2023-04-04T06:12:02;98921.88;;;0.68;69.73
56568;BME280;42456;49.956;20.004;2023-04-04T06:14:36;98920.61;;;0.72;69.32
56568;BME280;42456;49.956;20.004;2023-04-04T06:17:03;98920.23;;;0.77;69.57
56568;BME280;42456;49.956;20.004;2023-04-04T06:19:31;98921.21;;;0.75;68.51
56568;BME280;42456;49.956;20.004;2023-04-04T06:21:57;98919.27;;;0.77;68.84
56568;BME280;42456;49.956;20.004;2023-04-04T06:24:24;98921.91;;;0.92;69.46
56568;BME280;42456;49.956;20.004;2023-04-04T06:26:51;98921.50;;;1.03;68.82
56568;BME280;42456;49.956;20.004;2023-04-04T06:29:18;98923.08;;;1.09;68.64
56568;BME280;42456;49.956;20.004;2023-04-04T06:31:45;98921.96;;;1.14;68.75
56568;BME280;42456;49.956;20.004;2023-04-04T06:34:12;98929.12;;;1.15;68.10
56568;BME280;42456;49.956;20.004;2023-04-04T06:36:40;98924.38;;;1.06;67.42
56568;BME280;42456;49.956;20.004;2023-04-04T06:39:07;98928.29;;;0.99;67.59
56568;BME280;42456;49.956;20.004;2023-04-04T06:41:34;98928.48;;;1.10;68.04
56568;BME280;42456;49.956;20.004;2023-04-04T06:44:01;98926.84;;;1.09;67.27
56568;BME280;42456;49.956;20.004;2023-04-04T06:46:29;98924.17;;;1.00;67.77
56568;BME280;42456;49.956;20.004;2023-04-04T06:48:58;98918.40;;;0.90;67.90
56568;BME280;42456;49.956;20.004;2023-04-04T06:51:25;98920.02;;;0.82;67.91
56568;BME280;42456;49.956;20.004;2023-04-04T06:53:54;98915.30;;;0.82;67.52
56568;BME280;42456;49.956;20.004;2023-04-04T06:56:22;98909.98;;;0.89;68.34
56568;BME280;42456;49.956;20.004;2023-04-04T06:58:49;98916.05;;;0.93;67.65
56568;BME280;42456;49.956;20.004;2023-04-04T07:01:16;98916.55;;;1.01;67.70
56568;BME280;42456;49.956;20.004;2023-04-04T07:03:43;98914.05;;;1.05;67.66
56568;BME280;42456;49.956;20.004;2023-04-04T07:06:10;98911.65;;;1.05;67.07
56568;BME280;42456;49.956;20.004;2023-04-04T07:08:37;98910.98;;;1.07;67.22
56568;BME280;42456;49.956;20.004;2023-04-04T07:11:04;98911.42;;;1.10;67.52
56568;BME280;42456;49.956;20.004;2023-04-04T07:13:33;98914.22;;;1.13;67.57
56568;BME280;42456;49.956;20.004;2023-04-04T07:16:01;98917.36;;;1.14;67.06
56568;BME280;42456;49.956;20.004;2023-04-04T07:18:28;98915.08;;;1.14;67.66
56568;BME280;42456;49.956;20.004;2023-04-04T07:20:55;98908.46;;;1.22;67.07
56568;BME280;42456;49.956;20.004;2023-04-04T07:23:23;98909.88;;;1.34;67.04
56568;BME280;42456;49.956;20.004;2023-04-04T07:25:50;98904.45;;;1.52;67.05
56568;BME280;42456;49.956;20.004;2023-04-04T07:28:17;98903.39;;;1.77;67.70
56568;BME280;42456;49.956;20.004;2023-04-04T07:30:44;98906.09;;;2.07;67.33
56568;BME280;42456;49.956;20.004;2023-04-04T07:33:11;98906.13;;;2.28;67.17
56568;BME280;42456;49.956;20.004;2023-04-04T07:35:38;98908.35;;;2.37;66.34
56568;BME280;42456;49.956;20.004;2023-04-04T07:38:05;98903.71;;;2.51;66.34
56568;BME280;42456;49.956;20.004;2023-04-04T07:40:32;98910.63;;;2.49;64.60
56568;BME280;42456;49.956;20.004;2023-04-04T07:42:59;98902.94;;;2.60;65.27
56568;BME280;42456;49.956;20.004;2023-04-04T07:45:26;98902.61;;;2.79;65.26
56568;BME280;42456;49.956;20.004;2023-04-04T07:47:53;98907.84;;;2.86;63.04
56568;BME280;42456;49.956;20.004;2023-04-04T07:50:20;98907.20;;;2.92;63.29
56568;BME280;42456;49.956;20.004;2023-04-04T07:52:49;98912.44;;;3.05;64.26
56568;BME280;42456;49.956;20.004;2023-04-04T07:55:20;98914.35;;;3.05;62.92
56568;BME280;42456;49.956;20.004;2023-04-04T07:57:51;98911.73;;;3.00;62.85
56568;BME280;42456;49.956;20.004;2023-04-04T08:00:19;98911.26;;;3.02;62.62
56568;BME280;42456;49.956;20.004;2023-04-04T08:02:53;98908.73;;;2.78;61.31
56568;BME280;42456;49.956;20.004;2023-04-04T08:05:21;98905.82;;;2.63;61.91
56568;BME280;42456;49.956;20.004;2023-04-04T08:07:49;98910.91;;;2.61;62.06
56568;BME280;42456;49.956;20.004;2023-04-04T08:10:16;98906.30;;;2.66;62.25
56568;BME280;42456;49.956;20.004;2023-04-04T08:12:44;98904.67;;;2.73;61.99
56568;BME280;42456;49.956;20.004;2023-04-04T08:15:11;98899.59;;;2.76;62.00
56568;BME280;42456;49.956;20.004;2023-04-04T08:17:39;98901.76;;;2.77;61.82
56568;BME280;42456;49.956;20.004;2023-04-04T08:20:06;98903.34;;;2.73;61.54
56568;BME280;42456;49.956;20.004;2023-04-04T08:22:33;98899.57;;;2.67;61.82
56568;BME280;42456;49.956;20.004;2023-04-04T08:25:00;98899.52;;;2.68;62.36
56568;BME280;42456;49.956;20.004;2023-04-04T08:27:27;98893.05;;;2.77;62.20
56568;BME280;42456;49.956;20.004;2023-04-04T08:29:54;98895.52;;;2.87;62.50
56568;BME280;42456;49.956;20.004;2023-04-04T08:32:21;98892.80;;;2.92;61.02
56568;BME280;42456;49.956;20.004;2023-04-04T08:34:48;98891.85;;;2.89;61.46
56568;BME280;42456;49.956;20.004;2023-04-04T08:37:15;98891.17;;;2.91;61.50
56568;BME280;42456;49.956;20.004;2023-04-04T08:39:43;98891.59;;;2.89;61.87
56568;BME280;42456;49.956;20.004;2023-04-04T08:42:09;98894.84;;;2.89;61.06
56568;BME280;42456;49.956;20.004;2023-04-04T08:44:39;98889.67;;;2.86;60.95
56568;BME280;42456;49.956;20.004;2023-04-04T08:47:08;98888.39;;;2.84;60.30
56568;BME280;42456;49.956;20.004;2023-04-04T08:49:39;98877.91;;;2.79;60.92
56568;BME280;42456;49.956;20.004;2023-04-04T08:52:10;98874.83;;;2.76;60.84
56568;BME280;42456;49.956;20.004;2023-04-04T08:54:38;98867.98;;;2.80;61.05
56568;BME280;42456;49.956;20.004;2023-04-04T08:57:06;98863.09;;;2.81;61.02
56568;BME280;42456;49.956;20.004;2023-04-04T08:59:34;98860.77;;;2.86;60.60
56568;BME280;42456;49.956;20.004;2023-04-04T09:02:14;98862.48;;;2.98;60.42
56568;BME280;42456;49.956;20.004;2023-04-04T09:04:43;98860.67;;;2.94;57.99
56568;BME280;42456;49.956;20.004;2023-04-04T09:07:31;98859.59;;;2.85;58.22
56568;BME280;42456;49.956;20.004;2023-04-04T09:10:00;98863.30;;;2.75;57.67
56568;BME280;42456;49.956;20.004;2023-04-04T09:12:31;98856.45;;;2.74;59.25
56568;BME280;42456;49.956;20.004;2023-04-04T09:15:01;98874.20;;;2.76;58.28
56568;BME280;42456;49.956;20.004;2023-04-04T09:17:29;98877.28;;;2.75;56.69
56568;BME280;42456;49.956;20.004;2023-04-04T09:20:00;98874.09;;;2.74;54.45
56568;BME280;42456;49.956;20.004;2023-04-04T09:22:29;98870.14;;;2.65;52.80
56568;BME280;42456;49.956;20.004;2023-04-04T09:24:56;98860.73;;;2.61;53.50
56568;BME280;42456;49.956;20.004;2023-04-04T09:27:23;98864.84;;;2.69;54.63
56568;BME280;42456;49.956;20.004;2023-04-04T09:29:50;98864.27;;;2.77;54.11
56568;BME280;42456;49.956;20.004;2023-04-04T09:32:19;98869.77;;;2.76;49.31
56568;BME280;42456;49.956;20.004;2023-04-04T09:34:48;98864.86;;;2.77;49.73
56568;BME280;42456;49.956;20.004;2023-04-04T09:37:17;98870.48;;;2.79;48.94
56568;BME280;42456;49.956;20.004;2023-04-04T09:39:44;98868.98;;;2.73;49.50
56568;BME280;42456;49.956;20.004;2023-04-04T09:42:11;98874.13;;;2.72;50.29
56568;BME280;42456;49.956;20.004;2023-04-04T09:44:38;98872.27;;;2.75;49.60
56568;BME280;42456;49.956;20.004;2023-04-04T09:47:22;98867.18;;;2.79;48.83
56568;BME280;42456;49.956;20.004;2023-04-04T09:49:57;98859.64;;;2.86;49.68
56568;BME280;42456;49.956;20.004;2023-04-04T09:52:23;98865.61;;;3.01;49.77
56568;BME280;42456;49.956;20.004;2023-04-04T09:55:08;98868.13;;;3.09;49.71
56568;BME280;42456;49.956;20.004;2023-04-04T09:57:35;98861.68;;;3.16;50.13
56568;BME280;42456;49.956;20.004;2023-04-04T10:00:05;98861.36;;;3.20;47.86
56568;BME280;42456;49.956;20.004;2023-04-04T10:02:37;98858.65;;;3.24;47.09
56568;BME280;42456;49.956;20.004;2023-04-04T10:05:07;98857.21;;;3.34;48.61
56568;BME280;42456;49.956;20.004;2023-04-04T10:07:37;98861.72;;;3.48;47.74
56568;BME280;42456;49.956;20.004;2023-04-04T10:10:05;98863.35;;;3.54;47.80
56568;BME280;42456;49.956;20.004;2023-04-04T10:12:35;98860.25;;;3.63;48.71
56568;BME280;42456;49.956;20.004;2023-04-04T10:15:02;98852.61;;;3.69;48.68
56568;BME280;42456;49.956;20.004;2023-04-04T10:17:30;98851.13;;;3.76;47.91
56568;BME280;42456;49.956;20.004;2023-04-04T10:20:03;98840.66;;;3.86;47.38
56568;BME280;42456;49.956;20.004;2023-04-04T10:22:31;98844.00;;;3.90;46.90
56568;BME280;42456;49.956;20.004;2023-04-04T10:24:59;98847.41;;;3.87;46.43
56568;BME280;42456;49.956;20.004;2023-04-04T10:27:26;98845.40;;;3.82;46.41
56568;BME280;42456;49.956;20.004;2023-04-04T10:29:53;98842.96;;;3.79;46.09
56568;BME280;42456;49.956;20.004;2023-04-04T10:32:38;98845.91;;;3.77;46.83
56568;BME280;42456;49.956;20.004;2023-04-04T10:35:09;98842.21;;;3.83;46.74
56568;BME280;42456;49.956;20.004;2023-04-04T10:37:43;98833.45;;;3.93;47.50
56568;BME280;42456;49.956;20.004;2023-04-04T10:40:16;98843.39;;;3.96;45.33
56568;BME280;42456;49.956;20.004;2023-04-04T10:42:46;98848.69;;;3.90;45.75
56568;BME280;42456;49.956;20.004;2023-04-04T10:45:16;98846.30;;;3.91;45.63
56568;BME280;42456;49.956;20.004;2023-04-04T10:47:47;98847.18;;;3.93;46.33
56568;BME280;42456;49.956;20.004;2023-04-04T10:50:14;98841.45;;;3.89;45.03
56568;BME280;42456;49.956;20.004;2023-04-04T10:52:43;98839.23;;;3.87;45.65
56568;BME280;42456;49.956;20.004;2023-04-04T10:55:12;98842.73;;;3.87;45.48
56568;BME280;42456;49.956;20.004;2023-04-04T10:57:45;98843.20;;;3.73;43.62
56568;BME280;42456;49.956;20.004;2023-04-04T11:00:14;98846.47;;;3.64;45.09
56568;BME280;42456;49.956;20.004;2023-04-04T11:05:35;98843.50;;;3.59;45.59
56568;BME280;42456;49.956;20.004;2023-04-04T11:08:09;98840.45;;;3.72;46.51
56568;BME280;42456;49.956;20.004;2023-04-04T11:10:37;98836.61;;;3.86;47.60
56568;BME280;42456;49.956;20.004;2023-04-04T11:13:14;98836.45;;;4.03;47.67
56568;BME280;42456;49.956;20.004;2023-04-04T11:15:52;98828.33;;;4.11;46.57
56568;BME280;42456;49.956;20.004;2023-04-04T11:18:44;98833.41;;;4.15;46.29
56568;BME280;42456;49.956;20.004;2023-04-04T11:21:20;98828.92;;;4.09;46.05
56568;BME280;42456;49.956;20.004;2023-04-04T11:29:00;98825.59;;;4.26;45.75
56568;BME280;42456;49.956;20.004;2023-04-04T11:31:32;98833.27;;;4.21;45.80
56568;BME280;42456;49.956;20.004;2023-04-04T11:34:09;98822.81;;;4.15;44.66
56568;BME280;42456;49.956;20.004;2023-04-04T11:39:20;98827.45;;;4.25;45.08
56568;BME280;42456;49.956;20.004;2023-04-04T11:42:05;98828.20;;;4.35;45.45
56568;BME280;42456;49.956;20.004;2023-04-04T11:44:40;98833.42;;;4.44;45.58
56568;BME280;42456;49.956;20.004;2023-04-04T11:47:10;98826.08;;;4.43;44.64
56568;BME280;42456;49.956;20.004;2023-04-04T11:49:39;98823.99;;;4.33;44.05
56568;BME280;42456;49.956;20.004;2023-04-04T11:52:09;98826.64;;;4.18;44.71
56568;BME280;42456;49.956;20.004;2023-04-04T11:54:37;98831.36;;;4.10;45.57
56568;BME280;42456;49.956;20.004;2023-04-04T11:57:06;98825.52;;;4.06;45.79
56568;BME280;42456;49.956;20.004;2023-04-04T11:59:38;98822.90;;;4.08;46.82
56568;BME280;42456;49.956;20.004;2023-04-04T12:02:08;98811.91;;;4.16;46.92
56568;BME280;42456;49.956;20.004;2023-04-04T12:04:36;98813.70;;;4.25;47.26
56568;BME280;42456;49.956;20.004;2023-04-04T12:07:05;98817.25;;;4.32;45.92
56568;BME280;42456;49.956;20.004;2023-04-04T12:09:33;98816.42;;;4.36;45.63
56568;BME280;42456;49.956;20.004;2023-04-04T12:12:02;98815.30;;;4.38;47.34
56568;BME280;42456;49.956;20.004;2023-04-04T12:14:31;98819.81;;;4.29;45.84
56568;BME280;42456;49.956;20.004;2023-04-04T12:16:59;98809.57;;;4.13;46.31
56568;BME280;42456;49.956;20.004;2023-04-04T12:19:28;98811.59;;;4.13;48.03
56568;BME280;42456;49.956;20.004;2023-04-04T12:21:56;98808.73;;;4.21;47.83
56568;BME280;42456;49.956;20.004;2023-04-04T12:24:23;98807.06;;;4.26;47.51
56568;BME280;42456;49.956;20.004;2023-04-04T12:26:51;98803.33;;;4.29;47.44
56568;BME280;42456;49.956;20.004;2023-04-04T12:29:20;98797.30;;;4.40;48.03
56568;BME280;42456;49.956;20.004;2023-04-04T12:31:48;98791.89;;;4.50;47.82
56568;BME280;42456;49.956;20.004;2023-04-04T12:34:21;98795.30;;;4.52;47.01
56568;BME280;42456;49.956;20.004;2023-04-04T12:36:54;98790.42;;;4.47;46.09
56568;BME280;42456;49.956;20.004;2023-04-04T12:39:24;98793.64;;;4.44;46.52
56568;BME280;42456;49.956;20.004;2023-04-04T12:41:59;98796.63;;;4.43;45.50
56568;BME280;42456;49.956;20.004;2023-04-04T12:44:35;98790.98;;;4.51;46.18
56568;BME280;42456;49.956;20.004;2023-04-04T12:47:05;98793.09;;;4.54;45.62
56568;BME280;42456;49.956;20.004;2023-04-04T12:49:44;98783.14;;;4.59;46.04
56568;BME280;42456;49.956;20.004;2023-04-04T12:52:19;98790.89;;;4.56;45.02
56568;BME280;42456;49.956;20.004;2023-04-04T12:54:49;98781.98;;;4.50;45.83
56568;BME280;42456;49.956;20.004;2023-04-04T12:57:34;98784.89;;;4.54;46.13
56568;BME280;42456;49.956;20.004;2023-04-04T13:00:03;98783.70;;;4.50;46.74
56568;BME280;42456;49.956;20.004;2023-04-04T13:02:34;98783.72;;;4.47;46.80
56568;BME280;42456;49.956;20.004;2023-04-04T13:05:02;98780.98;;;4.42;46.24
56568;BME280;42456;49.956;20.004;2023-04-04T13:07:32;98787.25;;;4.35;46.18
56568;BME280;42456;49.956;20.004;2023-04-04T13:10:03;98783.00;;;4.25;46.41
56568;BME280;42456;49.956;20.004;2023-04-04T13:15:18;98776.88;;;4.06;46.64
56568;BME280;42456;49.956;20.004;2023-04-04T13:17:47;98779.46;;;3.98;46.82